createdAt,value
2022-12-18T00:02:49.851Z,18.88
2022-12-18T00:05:53.277Z,19.80
2022-12-18T00:08:57.412Z,19.92
2022-12-18T00:11:59.819Z,19.52
2022-12-18T00:15:02.196Z,20.75
2022-12-18T00:18:05.702Z,20.40
2022-12-18T00:21:10.146Z,19.00
2022-12-18T00:24:13.111Z,19.58
2022-12-18T00:27:15.450Z,19.48
2022-12-18T00:30:17.915Z,20.88
2022-12-18T00:33:20.261Z,21.35
2022-12-18T00:36:28.587Z,21.20
2022-12-18T00:39:31.278Z,19.80
2022-12-18T00:42:56.721Z,18.67
2022-12-18T00:45:59.409Z,19.92
2022-12-18T00:49:02.400Z,18.70
2022-12-18T00:52:04.780Z,16.20
2022-12-18T00:55:07.599Z,16.65
2022-12-18T00:58:11.139Z,16.27
2022-12-18T01:01:13.866Z,13.55
2022-12-18T01:04:16.333Z,12.63
2022-12-18T01:07:21.339Z,13.80
2022-12-18T01:10:24.413Z,13.93
2022-12-18T01:13:26.803Z,14.20
2022-12-18T01:16:29.285Z,14.30
2022-12-18T01:19:34.264Z,12.65
2022-12-18T01:22:37.314Z,14.40
2022-12-18T01:25:39.843Z,15.05
2022-12-18T01:28:45.585Z,14.38
2022-12-18T01:31:48.065Z,14.27
2022-12-18T01:34:50.532Z,15.57
2022-12-18T01:37:56.214Z,15.00
2022-12-18T01:40:59.979Z,14.63
2022-12-18T01:44:41.875Z,14.45
2022-12-18T01:47:57.398Z,13.85
2022-12-18T01:51:01.035Z,14.93
2022-12-18T01:54:03.562Z,13.90
2022-12-18T01:57:06.054Z,13.93
2022-12-18T02:00:20.176Z,12.95
2022-12-18T02:03:22.724Z,14.02
2022-12-18T02:06:40.576Z,13.95
2022-12-18T02:10:11.896Z,13.53
2022-12-18T02:13:14.702Z,14.70
2022-12-18T02:16:22.871Z,14.73
2022-12-18T02:19:48.839Z,15.50
2022-12-18T02:23:32.444Z,13.43
2022-12-18T02:26:42.478Z,14.70
2022-12-18T02:29:45.582Z,15.07
2022-12-18T02:32:52.071Z,15.10
2022-12-18T02:35:55.603Z,15.40
2022-12-18T02:39:00.109Z,15.25
2022-12-18T02:42:08.696Z,14.47
2022-12-18T02:45:11.618Z,14.90
2022-12-18T02:48:14.410Z,13.15
2022-12-18T02:51:37.439Z,11.85
2022-12-18T02:55:10.755Z,14.50
2022-12-18T02:58:21.979Z,13.77
2022-12-18T03:01:41.691Z,15.55
2022-12-18T03:04:49.671Z,15.27
2022-12-18T03:08:00.011Z,14.60
2022-12-18T03:11:13.911Z,14.52
2022-12-18T03:14:18.667Z,14.43
2022-12-18T03:17:24.341Z,15.13
2022-12-18T03:20:31.138Z,15.02
2022-12-18T03:23:37.828Z,14.55
2022-12-18T03:26:43.951Z,15.18
2022-12-18T03:30:03.878Z,15.30
2022-12-18T03:33:11.848Z,15.23
2022-12-18T03:36:18.448Z,14.52
2022-12-18T03:39:20.939Z,16.15
2022-12-18T03:42:47.592Z,17.45
2022-12-18T03:45:58.015Z,16.53
2022-12-18T03:49:09.060Z,16.25
2022-12-18T03:52:16.859Z,14.77
2022-12-18T03:55:20.742Z,17.33
2022-12-18T03:58:27.871Z,18.83
2022-12-18T04:01:42.220Z,20.10
2022-12-18T04:04:48.673Z,20.02
2022-12-18T04:07:54.904Z,21.35
2022-12-18T04:10:58.232Z,20.33
2022-12-18T04:14:05.861Z,19.80
2022-12-18T04:17:09.826Z,21.60
2022-12-18T04:20:12.923Z,23.33
2022-12-18T04:23:18.975Z,22.08
2022-12-18T04:26:22.070Z,23.35
2022-12-18T04:29:45.298Z,22.48
2022-12-18T04:32:52.226Z,23.70
2022-12-18T04:35:55.851Z,21.63
2022-12-18T04:38:59.043Z,21.58
2022-12-18T04:42:01.826Z,23.23
2022-12-18T04:45:04.867Z,31.77
2022-12-18T04:48:07.390Z,41.03
2022-12-18T04:51:09.802Z,23.90
2022-12-18T04:54:12.254Z,21.25
2022-12-18T04:57:14.931Z,21.38
2022-12-18T05:00:17.595Z,21.45
2022-12-18T05:03:20.050Z,21.87
2022-12-18T05:06:22.484Z,20.60
2022-12-18T05:09:24.909Z,21.88
2022-12-18T05:12:27.415Z,21.20
2022-12-18T05:15:31.514Z,20.58
2022-12-18T05:18:34.062Z,20.53
2022-12-18T05:21:36.554Z,26.15
2022-12-18T05:24:38.896Z,23.02
2022-12-18T05:27:41.303Z,22.35
2022-12-18T05:30:43.798Z,17.80
2022-12-18T05:33:46.302Z,16.87
2022-12-18T05:36:51.275Z,20.00
2022-12-18T05:39:53.693Z,21.30
2022-12-18T05:42:56.125Z,26.83
2022-12-18T05:45:58.618Z,25.35
2022-12-18T05:49:02.315Z,23.27
2022-12-18T05:52:04.884Z,23.13
2022-12-18T05:55:07.626Z,19.70
2022-12-18T05:58:11.387Z,23.63
2022-12-18T06:01:17.209Z,23.90
2022-12-18T06:04:19.668Z,22.67
2022-12-18T06:07:22.110Z,19.40
2022-12-18T06:10:24.610Z,18.88
2022-12-18T06:13:27.026Z,20.10
2022-12-18T06:16:29.844Z,22.85
2022-12-18T06:19:33.017Z,19.70
2022-12-18T06:22:36.069Z,19.63
2022-12-18T06:25:40.073Z,17.27
2022-12-18T06:28:42.862Z,17.83
2022-12-18T06:31:45.393Z,18.20
2022-12-18T06:34:47.964Z,18.87
2022-12-18T06:37:50.418Z,18.83
2022-12-18T06:40:53.294Z,21.05
2022-12-18T06:43:59.541Z,23.10
2022-12-18T06:47:02.471Z,17.83
2022-12-18T06:50:05.244Z,17.10
2022-12-18T06:53:07.751Z,19.23
2022-12-18T06:56:11.095Z,16.98
2022-12-18T06:59:14.329Z,17.98
2022-12-18T07:02:17.157Z,19.85
2022-12-18T07:05:19.677Z,24.87
2022-12-18T07:08:22.385Z,23.45
2022-12-18T07:11:25.442Z,17.80
2022-12-18T07:14:27.922Z,48.88
2022-12-18T07:17:30.601Z,48.97
2022-12-18T07:20:33.135Z,24.73
2022-12-18T07:23:36.464Z,22.25
2022-12-18T07:26:39.293Z,19.65
2022-12-18T07:29:41.847Z,18.92
2022-12-18T07:32:44.458Z,18.58
2022-12-18T07:35:47.031Z,18.20
2022-12-18T07:38:50.155Z,18.38
2022-12-18T07:42:11.192Z,18.88
2022-12-18T07:45:16.054Z,18.02
2022-12-18T07:48:18.419Z,20.15
2022-12-18T07:51:20.945Z,18.47
2022-12-18T07:54:24.282Z,24.50
2022-12-18T07:57:49.540Z,21.67
2022-12-18T08:00:49.176Z,22.45
2022-12-18T08:03:52.447Z,20.42
2022-12-18T08:06:55.247Z,22.37
2022-12-18T08:09:57.791Z,18.85
2022-12-18T08:13:04.827Z,14.95
2022-12-18T08:16:09.072Z,16.52
2022-12-18T08:19:11.616Z,17.33
2022-12-18T08:22:13.972Z,18.37
2022-12-18T08:25:16.520Z,17.48
2022-12-18T08:28:19.096Z,18.15
2022-12-18T08:31:22.177Z,20.13
2022-12-18T08:34:26.039Z,16.92
2022-12-18T08:37:28.562Z,19.87
2022-12-18T08:40:31.319Z,18.35
2022-12-18T08:43:52.462Z,16.02
2022-12-18T08:46:54.844Z,17.33
2022-12-18T08:49:57.238Z,16.88
2022-12-18T08:52:59.845Z,16.63
2022-12-18T08:56:02.452Z,15.35
2022-12-18T08:59:05.426Z,17.73
2022-12-18T09:02:10.801Z,18.70
2022-12-18T09:05:13.424Z,24.10
2022-12-18T09:08:15.863Z,26.53
2022-12-18T09:11:26.482Z,26.02
2022-12-18T09:14:28.910Z,21.35
2022-12-18T09:17:31.500Z,18.25
2022-12-18T09:20:33.987Z,25.58
2022-12-18T09:23:36.458Z,28.43
2022-12-18T09:26:38.890Z,24.45
2022-12-18T09:29:42.408Z,21.50
2022-12-18T09:32:44.807Z,19.25
2022-12-18T09:35:47.439Z,18.27
2022-12-18T09:38:49.872Z,42.77
2022-12-18T09:41:54.840Z,29.77
2022-12-18T09:44:57.358Z,28.27
2022-12-18T09:47:59.870Z,31.85
2022-12-18T09:51:13.400Z,18.08
2022-12-18T09:54:21.575Z,18.53
2022-12-18T09:57:26.536Z,35.65
2022-12-18T10:00:29.082Z,21.50
2022-12-18T10:03:33.027Z,16.75
2022-12-18T10:06:59.764Z,18.45
2022-12-18T10:10:27.703Z,15.53
2022-12-18T10:13:30.058Z,14.98
2022-12-18T10:16:46.237Z,14.65
2022-12-18T10:20:02.817Z,17.13
2022-12-18T10:23:36.058Z,15.50
2022-12-18T10:26:38.521Z,14.63
2022-12-18T10:29:42.641Z,16.90
2022-12-18T10:32:45.382Z,14.63
2022-12-18T10:35:49.585Z,19.05
2022-12-18T10:38:54.922Z,16.58
2022-12-18T10:42:20.327Z,19.03
2022-12-18T10:45:22.695Z,15.82
2022-12-18T10:48:25.280Z,22.55
2022-12-18T10:51:34.572Z,17.00
2022-12-18T10:54:37.275Z,14.23
2022-12-18T10:57:42.502Z,15.73
2022-12-18T11:00:44.998Z,22.27
2022-12-18T11:04:02.720Z,21.77
2022-12-18T11:07:08.287Z,20.88
2022-12-18T11:10:20.139Z,24.92
2022-12-18T11:13:24.727Z,22.47
2022-12-18T11:16:28.444Z,18.45
2022-12-18T11:19:36.719Z,16.25
2022-12-18T11:22:39.445Z,20.60
2022-12-18T11:25:55.739Z,23.30
2022-12-18T11:29:16.722Z,43.03
2022-12-18T11:32:38.622Z,21.52
2022-12-18T11:35:49.968Z,20.15
2022-12-18T11:38:54.530Z,19.23
2022-12-18T11:42:09.908Z,16.38
2022-12-18T11:45:12.500Z,20.20
2022-12-18T11:48:28.001Z,14.68
2022-12-18T11:51:36.137Z,39.85
2022-12-18T11:54:38.623Z,26.38
2022-12-18T11:57:50.589Z,20.38
2022-12-18T12:01:23.422Z,29.60
2022-12-18T12:04:42.285Z,17.40
2022-12-18T12:07:47.445Z,15.82
2022-12-18T12:11:26.706Z,14.55
2022-12-18T12:15:00.923Z,14.80
2022-12-18T12:18:19.475Z,13.80
2022-12-18T12:21:25.301Z,17.75
2022-12-18T12:24:40.615Z,18.98
2022-12-18T12:27:48.992Z,17.13
2022-12-18T12:31:08.494Z,17.52
2022-12-18T12:34:50.411Z,15.17
2022-12-18T12:38:07.398Z,17.17
2022-12-18T12:41:34.010Z,17.15
2022-12-18T12:44:56.198Z,17.15
2022-12-18T12:47:59.361Z,14.68
2022-12-18T12:51:03.855Z,17.73
2022-12-18T12:54:10.884Z,17.08
2022-12-18T12:57:37.897Z,16.30
2022-12-18T13:00:45.948Z,16.15
2022-12-18T13:04:13.763Z,16.23
2022-12-18T13:07:41.068Z,15.50
2022-12-18T13:10:43.766Z,15.98
2022-12-18T13:14:04.506Z,15.02
2022-12-18T13:17:22.125Z,15.52
2022-12-18T13:20:34.763Z,19.27
2022-12-18T13:23:40.966Z,19.80
2022-12-18T13:26:43.618Z,19.25
2022-12-18T13:29:47.020Z,21.23
2022-12-18T13:33:25.248Z,21.40
2022-12-18T13:36:30.636Z,18.65
2022-12-18T13:39:35.437Z,20.80
2022-12-18T13:43:00.189Z,19.33
2022-12-18T13:46:06.751Z,17.52
2022-12-18T13:49:15.199Z,24.67
2022-12-18T13:52:24.431Z,20.42
2022-12-18T13:55:27.126Z,16.87
2022-12-18T13:58:29.844Z,19.08
2022-12-18T14:01:32.286Z,17.75
2022-12-18T14:04:36.524Z,17.08
2022-12-18T14:07:41.964Z,18.42
2022-12-18T14:10:50.212Z,19.90
2022-12-18T14:13:53.276Z,19.17
2022-12-18T14:16:56.150Z,20.67
2022-12-18T14:19:59.695Z,22.15
2022-12-18T14:23:02.202Z,24.57
2022-12-18T14:26:28.175Z,23.57
2022-12-18T14:29:31.729Z,21.55
2022-12-18T14:32:34.164Z,16.23
2022-12-18T14:35:40.419Z,20.00
2022-12-18T14:38:43.112Z,19.95
2022-12-18T14:41:45.998Z,18.23
2022-12-18T14:45:12.881Z,16.92
2022-12-18T14:48:25.964Z,62.88
2022-12-18T14:51:30.681Z,53.95
2022-12-18T14:54:35.283Z,44.83
2022-12-18T14:57:38.917Z,32.90
2022-12-18T15:00:43.424Z,22.92
2022-12-18T15:03:45.972Z,35.80
2022-12-18T15:06:49.356Z,60.95
2022-12-18T15:10:05.484Z,28.58
2022-12-18T15:13:10.741Z,17.70
2022-12-18T15:16:13.853Z,16.85
2022-12-18T15:19:17.415Z,16.48
2022-12-18T15:22:25.621Z,19.08
2022-12-18T15:25:37.738Z,19.75
2022-12-18T15:29:00.936Z,15.30
2022-12-18T15:32:06.977Z,13.48
2022-12-18T15:35:12.531Z,13.23
2022-12-18T15:38:15.337Z,14.82
2022-12-18T15:41:24.335Z,12.88
2022-12-18T15:44:27.811Z,14.60
2022-12-18T15:47:30.585Z,14.90
2022-12-18T15:50:33.584Z,14.20
2022-12-18T15:53:36.133Z,14.65
2022-12-18T15:57:13.772Z,13.35
2022-12-18T16:00:16.716Z,13.53
2022-12-18T16:03:20.002Z,13.30
2022-12-18T16:06:23.480Z,13.35
2022-12-18T16:09:26.503Z,12.73
2022-12-18T16:12:29.083Z,13.23
2022-12-18T16:15:31.565Z,12.67
2022-12-18T16:18:34.469Z,12.30
2022-12-18T16:21:37.626Z,12.55
2022-12-18T16:24:40.390Z,15.63
2022-12-18T16:27:43.070Z,13.90
2022-12-18T16:30:47.135Z,13.93
2022-12-18T16:33:49.823Z,13.15
2022-12-18T16:36:54.435Z,13.88
2022-12-18T16:39:56.885Z,14.05
2022-12-18T16:42:59.508Z,17.55
2022-12-18T16:46:02.408Z,13.17
2022-12-18T16:49:05.468Z,23.85
2022-12-18T16:52:08.258Z,14.60
2022-12-18T16:55:10.947Z,14.18
2022-12-18T16:58:13.642Z,14.93
2022-12-18T17:01:16.333Z,13.20
2022-12-18T17:04:19.137Z,12.98
2022-12-18T17:07:22.056Z,17.48
2022-12-18T17:10:24.763Z,15.52
2022-12-18T17:13:27.587Z,19.30
2022-12-18T17:16:30.365Z,17.90
2022-12-18T17:19:34.573Z,14.90
2022-12-18T17:22:37.318Z,15.00
2022-12-18T17:25:40.542Z,12.95
2022-12-18T17:28:43.147Z,14.25
2022-12-18T17:31:46.925Z,13.10
2022-12-18T17:34:50.703Z,11.60
2022-12-18T17:37:53.414Z,11.55
2022-12-18T17:41:01.534Z,11.23
2022-12-18T17:44:05.875Z,11.57
2022-12-18T17:47:11.403Z,13.87
2022-12-18T17:50:14.463Z,16.38
2022-12-18T17:53:18.192Z,13.43
2022-12-18T17:56:22.588Z,13.43
2022-12-18T17:59:25.299Z,14.97
2022-12-18T18:02:28.166Z,13.13
2022-12-18T18:05:31.102Z,16.08
2022-12-18T18:08:34.892Z,11.60
2022-12-18T18:11:55.623Z,14.35
2022-12-18T18:14:58.963Z,9.77
2022-12-18T18:18:02.048Z,10.80
2022-12-18T18:21:06.119Z,11.85
2022-12-18T18:24:09.840Z,14.68
2022-12-18T18:27:12.570Z,11.30
2022-12-18T18:30:15.457Z,12.00
2022-12-18T18:33:18.215Z,11.43
2022-12-18T18:36:21.213Z,9.77
2022-12-18T18:39:25.235Z,10.00
2022-12-18T18:42:27.970Z,9.93
2022-12-18T18:45:30.647Z,10.07
2022-12-18T18:48:36.253Z,10.80
2022-12-18T18:51:42.072Z,11.38
2022-12-18T18:55:10.795Z,10.05
2022-12-18T18:58:07.486Z,10.55
2022-12-18T19:01:16.078Z,10.88
2022-12-18T19:04:20.046Z,9.13
2022-12-18T19:07:30.403Z,11.40
2022-12-18T19:10:33.948Z,11.10
2022-12-18T19:13:36.673Z,9.80
2022-12-18T19:16:39.448Z,10.52
2022-12-18T19:19:42.467Z,10.40
2022-12-18T19:22:52.216Z,10.85
2022-12-18T19:26:27.104Z,10.98
2022-12-18T19:29:24.561Z,10.45
2022-12-18T19:32:27.090Z,11.30
2022-12-18T19:35:29.793Z,10.13
2022-12-18T19:38:32.926Z,10.68
2022-12-18T19:41:35.334Z,9.73
2022-12-18T19:44:37.954Z,9.77
2022-12-18T19:47:41.054Z,8.18
2022-12-18T19:50:43.619Z,9.83
2022-12-18T19:53:46.355Z,9.48
2022-12-18T19:56:48.722Z,9.55
2022-12-18T19:59:51.367Z,11.52
2022-12-18T20:03:00.107Z,9.20
2022-12-18T20:06:15.737Z,9.40
2022-12-18T20:09:19.311Z,9.48
2022-12-18T20:12:23.903Z,11.77
2022-12-18T20:15:26.630Z,10.07
2022-12-18T20:18:29.446Z,12.57
2022-12-18T20:21:32.537Z,14.57
2022-12-18T20:24:35.177Z,14.02
2022-12-18T20:27:37.809Z,12.45
2022-12-18T20:30:40.651Z,12.93
2022-12-18T20:33:46.324Z,12.25
2022-12-18T20:36:51.198Z,10.40
2022-12-18T20:39:53.916Z,9.95
2022-12-18T20:42:56.836Z,10.63
2022-12-18T20:46:10.479Z,10.60
2022-12-18T20:49:13.087Z,10.27
2022-12-18T20:52:16.092Z,12.93
2022-12-18T20:55:19.485Z,31.50
2022-12-18T20:58:21.915Z,37.80
2022-12-18T21:01:25.206Z,36.53
2022-12-18T21:04:27.733Z,36.15
2022-12-18T21:07:30.322Z,64.80
2022-12-18T21:10:32.990Z,45.60
2022-12-18T21:13:36.183Z,33.45
2022-12-18T21:16:40.335Z,29.20
2022-12-18T21:19:43.140Z,29.95
2022-12-18T21:22:46.938Z,27.10
2022-12-18T21:25:55.524Z,44.58
2022-12-18T21:29:02.131Z,40.25
2022-12-18T21:32:05.392Z,39.83
2022-12-18T21:35:08.131Z,37.65
2022-12-18T21:38:10.563Z,34.43
2022-12-18T21:41:41.698Z,31.63
2022-12-18T21:44:45.211Z,31.33
2022-12-18T21:47:47.713Z,27.52
2022-12-18T21:50:50.239Z,24.95
2022-12-18T21:53:52.632Z,19.60
2022-12-18T21:57:02.460Z,14.05
2022-12-18T22:00:06.212Z,14.15
2022-12-18T22:03:18.646Z,12.15
2022-12-18T22:06:22.418Z,16.20
2022-12-18T22:09:26.027Z,13.20
2022-12-18T22:12:44.467Z,12.18
2022-12-18T22:15:48.020Z,11.00
2022-12-18T22:18:50.446Z,10.57
2022-12-18T22:21:53.513Z,10.15
2022-12-18T22:24:55.986Z,9.60
2022-12-18T22:28:16.817Z,8.35
2022-12-18T22:31:19.253Z,8.32
2022-12-18T22:34:23.208Z,9.20
2022-12-18T22:37:25.797Z,9.90
2022-12-18T22:40:28.568Z,8.67
2022-12-18T22:43:31.194Z,9.10
2022-12-18T22:46:39.424Z,9.98
2022-12-18T22:49:41.915Z,11.07
2022-12-18T22:52:44.371Z,10.40
2022-12-18T22:55:46.758Z,12.00
2022-12-18T22:58:50.447Z,9.27
2022-12-18T23:01:58.358Z,22.98
2022-12-18T23:05:01.695Z,14.93
2022-12-18T23:08:04.316Z,9.90
2022-12-18T23:11:07.198Z,14.43
2022-12-18T23:14:09.611Z,12.77
2022-12-18T23:17:12.101Z,12.88
2022-12-18T23:20:14.582Z,10.80
2022-12-18T23:23:17.079Z,9.43
2022-12-18T23:26:22.861Z,10.10
2022-12-18T23:29:25.506Z,10.90
2022-12-18T23:32:27.976Z,9.93
2022-12-18T23:35:30.543Z,10.23
2022-12-18T23:38:33.561Z,8.93
2022-12-18T23:41:36.008Z,10.00
2022-12-18T23:44:38.443Z,9.50
2022-12-18T23:47:40.851Z,10.75
2022-12-18T23:50:43.250Z,9.65
2022-12-18T23:53:46.078Z,16.35
2022-12-18T23:56:48.507Z,14.30
2022-12-18T23:59:53.169Z,12.50
